Weather at Naval Hospital Heliport [CLOSED]

Public forecast

Using degrees Fahrenheit for public forecast. Weather courtesy of forecast.io.

Closest aviation weather report (METAR) to Naval Hospital Heliport

Closest report is Metropolitan Oakland International Airport, 4.4 nm (8.1 km) SW.

2024/05/28 01:53 (retrieved 29 minutes ago)

KOAK 280153Z 28010KT 10SM FEW010 14/11 A3004 RMK AO2 SLP173 T01440106

Closest aviation forecast (TAF) to Naval Hospital Heliport

Forecast is more than 6 hours old.

Closest forecast is Travis Air Force Base, 31.6 nm (58.5 km) NNE.

2024/05/27 19:38 (retrieved 7 hours ago)

TAF KSUU 271900Z 2719/2901 23012G18KT 9999 SKC QNH2991INS BECMG 2719/2720 23015G25KT 9999 SKC QNH2990INS BECMG 2814/2815 23010G15KT 9999 SKC QNH3000INS TX27/2723Z TN10/2813Z